sensor_id;sensor_type;location;lat;lon;timestamp;pressure;altitude;pressure_sealevel;temperature;humidity
35248;BME280;21380;52.194;20.520;2023-05-24T00:01:35;100092.22;;;21.53;58.12
35248;BME280;21380;52.194;20.520;2023-05-24T00:04:02;100114.88;;;21.65;57.88
35248;BME280;21380;52.194;20.520;2023-05-24T00:06:28;100108.78;;;21.65;58.04
35248;BME280;21380;52.194;20.520;2023-05-24T00:08:55;100109.66;;;21.64;58.05
35248;BME280;21380;52.194;20.520;2023-05-24T00:11:21;100107.03;;;21.64;57.93
35248;BME280;21380;52.194;20.520;2023-05-24T00:13:47;100105.28;;;21.63;57.81
35248;BME280;21380;52.194;20.520;2023-05-24T00:16:14;100097.44;;;21.58;57.90
35248;BME280;21380;52.194;20.520;2023-05-24T00:18:40;100098.34;;;21.56;57.88
35248;BME280;21380;52.194;20.520;2023-05-24T00:21:12;100100.97;;;21.57;58.04
35248;BME280;21380;52.194;20.520;2023-05-24T00:23:39;100105.31;;;21.60;57.79
35248;BME280;21380;52.194;20.520;2023-05-24T00:26:07;100104.44;;;21.59;57.92
35248;BME280;21380;52.194;20.520;2023-05-24T00:28:33;100080.94;;;21.45;57.80
35248;BME280;21380;52.194;20.520;2023-05-24T00:31:00;100062.63;;;21.37;57.87
35248;BME280;21380;52.194;20.520;2023-05-24T00:33:26;100069.56;;;21.43;57.91
35248;BME280;21380;52.194;20.520;2023-05-24T00:35:54;100097.47;;;21.57;58.23
35248;BME280;21380;52.194;20.520;2023-05-24T00:38:23;100101.84;;;21.56;58.01
35248;BME280;21380;52.194;20.520;2023-05-24T00:40:50;100103.59;;;21.56;58.10
35248;BME280;21380;52.194;20.520;2023-05-24T00:43:16;100078.34;;;21.41;58.07
35248;BME280;21380;52.194;20.520;2023-05-24T00:45:42;100095.72;;;21.56;58.01
35248;BME280;21380;52.194;20.520;2023-05-24T00:48:08;100099.19;;;21.54;58.06
35248;BME280;21380;52.194;20.520;2023-05-24T00:50:38;100082.72;;;21.42;58.28
35248;BME280;21380;52.194;20.520;2023-05-24T00:53:05;100101.84;;;21.53;57.89
35248;BME280;21380;52.194;20.520;2023-05-24T00:55:33;100095.72;;;21.52;58.06
35248;BME280;21380;52.194;20.520;2023-05-24T00:57:59;100099.22;;;21.51;58.07
35248;BME280;21380;52.194;20.520;2023-05-24T01:00:26;100072.28;;;21.34;58.07
35248;BME280;21380;52.194;20.520;2023-05-24T01:02:53;100089.63;;;21.49;58.08
35248;BME280;21380;52.194;20.520;2023-05-24T01:05:20;100088.78;;;21.45;57.88
35248;BME280;21380;52.194;20.520;2023-05-24T01:10:42;100074.88;;;21.37;58.19
35248;BME280;21380;52.194;20.520;2023-05-24T01:15:58;100080.13;;;21.35;58.22
35248;BME280;21380;52.194;20.520;2023-05-24T01:18:33;100071.44;;;21.30;58.42
35248;BME280;21380;52.194;20.520;2023-05-24T01:21:37;100072.34;;;21.28;58.16
35248;BME280;21380;52.194;20.520;2023-05-24T01:24:36;100102.78;;;21.44;58.17
35248;BME280;21380;52.194;20.520;2023-05-24T01:27:08;100102.81;;;21.43;58.22
35248;BME280;21380;52.194;20.520;2023-05-24T01:29:37;100103.69;;;21.43;58.45
35248;BME280;21380;52.194;20.520;2023-05-24T01:32:03;100063.66;;;21.19;58.33
35248;BME280;21380;52.194;20.520;2023-05-24T01:34:33;100105.44;;;21.43;58.41
35248;BME280;21380;52.194;20.520;2023-05-24T01:37:16;100056.72;;;21.18;58.27
35248;BME280;21380;52.194;20.520;2023-05-24T01:39:42;100099.31;;;21.41;58.16
35248;BME280;21380;52.194;20.520;2023-05-24T01:50:10;100087.22;;;21.27;58.54
35248;BME280;21380;52.194;20.520;2023-05-24T01:52:43;100080.25;;;21.23;58.45
35248;BME280;21380;52.194;20.520;2023-05-24T01:55:12;100089.84;;;21.29;58.39
35248;BME280;21380;52.194;20.520;2023-05-24T01:57:39;100085.50;;;21.21;58.47
35248;BME280;21380;52.194;20.520;2023-05-24T02:00:06;100073.34;;;21.14;58.37
35248;BME280;21380;52.194;20.520;2023-05-24T02:02:33;100102.06;;;21.31;58.36
35248;BME280;21380;52.194;20.520;2023-05-24T02:04:59;100103.81;;;21.28;58.35
35248;BME280;21380;52.194;20.520;2023-05-24T02:07:25;100111.69;;;21.31;58.45
35248;BME280;21380;52.194;20.520;2023-05-24T02:09:51;100114.28;;;21.34;58.53
35248;BME280;21380;52.194;20.520;2023-05-24T02:12:17;100114.28;;;21.34;58.46
35248;BME280;21380;52.194;20.520;2023-05-24T02:14:43;100114.28;;;21.32;58.57
35248;BME280;21380;52.194;20.520;2023-05-24T02:17:08;100108.22;;;21.27;58.59
35248;BME280;21380;52.194;20.520;2023-05-24T02:19:34;100119.56;;;21.31;58.54
35248;BME280;21380;52.194;20.520;2023-05-24T02:22:01;100113.50;;;21.22;58.55
35248;BME280;21380;52.194;20.520;2023-05-24T02:24:28;100122.19;;;21.31;58.54
35248;BME280;21380;52.194;20.520;2023-05-24T02:26:53;100124.81;;;21.31;58.56
35248;BME280;21380;52.194;20.520;2023-05-24T02:29:21;100118.66;;;21.30;58.67
35248;BME280;21380;52.194;20.520;2023-05-24T02:31:47;100122.16;;;21.29;58.60
35248;BME280;21380;52.194;20.520;2023-05-24T02:34:16;100122.16;;;21.29;58.54
35248;BME280;21380;52.194;20.520;2023-05-24T02:36:42;100127.44;;;21.28;58.68
35248;BME280;21380;52.194;20.520;2023-05-24T02:39:08;100108.28;;;21.16;58.93
35248;BME280;21380;52.194;20.520;2023-05-24T02:41:34;100130.09;;;21.26;58.74
35248;BME280;21380;52.194;20.520;2023-05-24T02:44:00;100128.31;;;21.27;58.73
35248;BME280;21380;52.194;20.520;2023-05-24T02:46:25;100129.19;;;21.26;58.71
35248;BME280;21380;52.194;20.520;2023-05-24T02:48:51;100111.81;;;21.11;58.80
35248;BME280;21380;52.194;20.520;2023-05-24T02:51:17;100127.47;;;21.25;58.65
35248;BME280;21380;52.194;20.520;2023-05-24T02:53:43;100139.69;;;21.24;58.65
35248;BME280;21380;52.194;20.520;2023-05-24T02:56:09;100138.84;;;21.24;58.81
35248;BME280;21380;52.194;20.520;2023-05-24T02:58:36;100129.25;;;21.18;58.78
35248;BME280;21380;52.194;20.520;2023-05-24T03:01:04;100123.13;;;21.22;59.01
35248;BME280;21380;52.194;20.520;2023-05-24T03:03:40;100127.47;;;21.23;58.89
35248;BME280;21380;52.194;20.520;2023-05-24T03:06:06;100101.41;;;21.06;58.90
35248;BME280;21380;52.194;20.520;2023-05-24T03:08:33;100116.19;;;21.15;58.73
35248;BME280;21380;52.194;20.520;2023-05-24T03:10:59;100120.59;;;21.10;58.95
35248;BME280;21380;52.194;20.520;2023-05-24T03:13:25;100122.28;;;21.15;58.92
35248;BME280;21380;52.194;20.520;2023-05-24T03:15:51;100127.56;;;21.12;59.00
35248;BME280;21380;52.194;20.520;2023-05-24T03:18:17;100140.63;;;21.20;58.86
35248;BME280;21380;52.194;20.520;2023-05-24T03:20:43;100129.31;;;21.10;59.08
35248;BME280;21380;52.194;20.520;2023-05-24T03:23:09;100134.53;;;21.16;59.01
35248;BME280;21380;52.194;20.520;2023-05-24T03:25:35;100139.72;;;21.19;59.02
35248;BME280;21380;52.194;20.520;2023-05-24T03:28:00;100126.69;;;21.10;59.22
35248;BME280;21380;52.194;20.520;2023-05-24T03:30:27;100106.66;;;21.01;58.85
35248;BME280;21380;52.194;20.520;2023-05-24T03:32:53;100140.63;;;21.18;59.15
35248;BME280;21380;52.194;20.520;2023-05-24T03:35:19;100112.75;;;21.02;59.03
35248;BME280;21380;52.194;20.520;2023-05-24T03:37:45;100111.88;;;21.04;59.12
35248;BME280;21380;52.194;20.520;2023-05-24T03:40:11;100137.13;;;21.18;59.00
35248;BME280;21380;52.194;20.520;2023-05-24T03:42:37;100123.25;;;21.05;59.01
35248;BME280;21380;52.194;20.520;2023-05-24T03:45:04;100133.66;;;21.17;59.03
35248;BME280;21380;52.194;20.520;2023-05-24T03:47:30;100132.75;;;21.17;59.23
35248;BME280;21380;52.194;20.520;2023-05-24T03:49:56;100130.19;;;21.14;59.22
35248;BME280;21380;52.194;20.520;2023-05-24T03:52:23;100141.50;;;21.17;59.16
35248;BME280;21380;52.194;20.520;2023-05-24T03:54:49;100115.38;;;21.02;58.93
35248;BME280;21380;52.194;20.520;2023-05-24T03:57:15;100125.84;;;21.08;59.01
35248;BME280;21380;52.194;20.520;2023-05-24T03:59:41;100131.94;;;21.10;59.21
35248;BME280;21380;52.194;20.520;2023-05-24T04:02:07;100145.88;;;21.18;59.01
35248;BME280;21380;52.194;20.520;2023-05-24T04:04:33;100141.53;;;21.13;59.22
35248;BME280;21380;52.194;20.520;2023-05-24T04:06:59;100137.22;;;21.07;59.09
35248;BME280;21380;52.194;20.520;2023-05-24T04:09:25;100147.63;;;21.18;59.13
35248;BME280;21380;52.194;20.520;2023-05-24T04:11:51;100115.44;;;20.97;59.22
35248;BME280;21380;52.194;20.520;2023-05-24T04:14:16;100139.84;;;21.07;59.21
35248;BME280;21380;52.194;20.520;2023-05-24T04:16:43;100153.75;;;21.18;59.10
35248;BME280;21380;52.194;20.520;2023-05-24T04:19:10;100155.53;;;21.15;59.21
35248;BME280;21380;52.194;20.520;2023-05-24T04:21:36;100155.50;;;21.16;59.15
35248;BME280;21380;52.194;20.520;2023-05-24T04:24:03;100135.50;;;21.03;59.29
35248;BME280;21380;52.194;20.520;2023-05-24T04:26:31;100165.97;;;21.19;59.35
35248;BME280;21380;52.194;20.520;2023-05-24T04:28:58;100160.75;;;21.16;59.33
35248;BME280;21380;52.194;20.520;2023-05-24T04:31:25;100166.88;;;21.18;59.08
35248;BME280;21380;52.194;20.520;2023-05-24T04:33:55;100161.66;;;21.12;59.42
35248;BME280;21380;52.194;20.520;2023-05-24T04:36:25;100178.22;;;21.19;59.18
35248;BME280;21380;52.194;20.520;2023-05-24T04:38:51;100160.81;;;21.09;59.33
35248;BME280;21380;52.194;20.520;2023-05-24T04:41:20;100174.75;;;21.15;59.19
35248;BME280;21380;52.194;20.520;2023-05-24T04:43:47;100189.56;;;21.19;59.28
35248;BME280;21380;52.194;20.520;2023-05-24T04:46:13;100189.56;;;21.19;59.16
35248;BME280;21380;52.194;20.520;2023-05-24T04:48:39;100121.63;;;20.85;59.50
35248;BME280;21380;52.194;20.520;2023-05-24T04:51:05;100173.06;;;21.10;59.38
35248;BME280;21380;52.194;20.520;2023-05-24T04:53:31;100186.09;;;21.19;59.31
35248;BME280;21380;52.194;20.520;2023-05-24T04:55:58;100167.81;;;21.10;59.36
35248;BME280;21380;52.194;20.520;2023-05-24T04:58:24;100150.38;;;20.98;59.50
35248;BME280;21380;52.194;20.520;2023-05-24T05:00:50;100178.25;;;21.13;59.37
35248;BME280;21380;52.194;20.520;2023-05-24T05:03:15;100180.00;;;21.11;59.48
35248;BME280;21380;52.194;20.520;2023-05-24T05:05:42;100179.19;;;21.07;59.50
35248;BME280;21380;52.194;20.520;2023-05-24T05:08:08;100182.66;;;21.09;59.68
35248;BME280;21380;52.194;20.520;2023-05-24T05:10:34;100207.94;;;21.19;59.66
35248;BME280;21380;52.194;20.520;2023-05-24T05:13:00;100210.56;;;21.19;59.48
35248;BME280;21380;52.194;20.520;2023-05-24T05:15:26;100213.19;;;21.19;59.42
35248;BME280;21380;52.194;20.520;2023-05-24T05:17:52;100211.47;;;21.15;59.63
35248;BME280;21380;52.194;20.520;2023-05-24T05:20:18;100220.16;;;21.20;59.62
35248;BME280;21380;52.194;20.520;2023-05-24T05:22:45;100190.53;;;21.04;59.52
35248;BME280;21380;52.194;20.520;2023-05-24T05:25:11;100208.84;;;21.14;59.46
35248;BME280;21380;52.194;20.520;2023-05-24T05:27:37;100210.59;;;21.12;59.67
35248;BME280;21380;52.194;20.520;2023-05-24T05:30:03;100205.38;;;21.13;59.44
35248;BME280;21380;52.194;20.520;2023-05-24T05:32:29;100207.06;;;21.19;59.43
35248;BME280;21380;52.194;20.520;2023-05-24T05:34:55;100212.31;;;21.20;59.37
35248;BME280;21380;52.194;20.520;2023-05-24T05:37:21;100190.56;;;21.06;59.45
35248;BME280;21380;52.194;20.520;2023-05-24T05:39:47;100178.34;;;21.00;59.42
35248;BME280;21380;52.194;20.520;2023-05-24T05:42:13;100211.47;;;21.18;59.41
35248;BME280;21380;52.194;20.520;2023-05-24T05:44:39;100220.16;;;21.20;59.32
35248;BME280;21380;52.194;20.520;2023-05-24T05:47:05;100217.59;;;21.16;59.25
35248;BME280;21380;52.194;20.520;2023-05-24T05:49:32;100221.03;;;21.19;59.63
35248;BME280;21380;52.194;20.520;2023-05-24T05:52:04;100216.72;;;21.18;59.30
35248;BME280;21380;52.194;20.520;2023-05-24T05:54:30;100232.41;;;21.25;59.32
35248;BME280;21380;52.194;20.520;2023-05-24T05:56:56;100225.44;;;21.17;59.38
35248;BME280;21380;52.194;20.520;2023-05-24T05:59:23;100239.38;;;21.24;59.11
35248;BME280;21380;52.194;20.520;2023-05-24T06:01:48;100229.81;;;21.17;59.25
35248;BME280;21380;52.194;20.520;2023-05-24T06:04:15;100236.81;;;21.16;59.32
35248;BME280;21380;52.194;20.520;2023-05-24T06:06:41;100247.25;;;21.26;59.16
35248;BME280;21380;52.194;20.520;2023-05-24T06:09:07;100252.47;;;21.26;59.18
35248;BME280;21380;52.194;20.520;2023-05-24T06:11:33;100257.72;;;21.26;59.38
35248;BME280;21380;52.194;20.520;2023-05-24T06:13:59;100269.13;;;21.26;59.01
35248;BME280;21380;52.194;20.520;2023-05-24T06:16:25;100262.09;;;21.27;59.19
35248;BME280;21380;52.194;20.520;2023-05-24T06:18:51;100256.88;;;21.24;59.24
35248;BME280;21380;52.194;20.520;2023-05-24T06:21:17;100253.44;;;21.15;59.35
35248;BME280;21380;52.194;20.520;2023-05-24T06:23:43;100267.34;;;21.27;59.05
35248;BME280;21380;52.194;20.520;2023-05-24T06:26:08;100268.25;;;21.27;59.16
35248;BME280;21380;52.194;20.520;2023-05-24T06:28:35;100270.88;;;21.27;59.09
35248;BME280;21380;52.194;20.520;2023-05-24T06:31:02;100266.53;;;21.20;59.04
35248;BME280;21380;52.194;20.520;2023-05-24T06:33:28;100282.41;;;20.84;57.70
35248;BME280;21380;52.194;20.520;2023-05-24T06:35:54;100293.88;;;20.51;57.93
35248;BME280;21380;52.194;20.520;2023-05-24T06:38:20;100278.97;;;20.61;57.71
35248;BME280;21380;52.194;20.520;2023-05-24T06:40:46;100291.19;;;20.80;57.77
35248;BME280;21380;52.194;20.520;2023-05-24T06:43:12;100285.91;;;20.86;57.76
35248;BME280;21380;52.194;20.520;2023-05-24T06:45:38;100273.72;;;20.82;57.83
35248;BME280;21380;52.194;20.520;2023-05-24T06:48:04;100293.72;;;20.96;57.79
35248;BME280;21380;52.194;20.520;2023-05-24T06:50:30;100292.84;;;21.00;57.72
35248;BME280;21380;52.194;20.520;2023-05-24T06:52:56;100275.41;;;20.93;57.72
35248;BME280;21380;52.194;20.520;2023-05-24T06:55:22;100285.88;;;20.99;57.73
35248;BME280;21380;52.194;20.520;2023-05-24T06:57:48;100276.28;;;20.92;57.71
35248;BME280;21380;52.194;20.520;2023-05-24T07:00:14;100293.72;;;21.03;57.61
35248;BME280;21380;52.194;20.520;2023-05-24T07:02:40;100301.56;;;21.02;57.63
35248;BME280;21380;52.194;20.520;2023-05-24T07:05:07;100287.63;;;21.00;57.76
35248;BME280;21380;52.194;20.520;2023-05-24T07:07:38;100300.69;;;21.04;57.49
35248;BME280;21380;52.194;20.520;2023-05-24T07:10:06;100314.66;;;21.11;57.77
35248;BME280;21380;52.194;20.520;2023-05-24T07:12:33;100316.41;;;21.12;57.79
35248;BME280;21380;52.194;20.520;2023-05-24T07:14:59;100303.34;;;21.00;57.55
35248;BME280;21380;52.194;20.520;2023-05-24T07:17:25;100315.53;;;21.12;57.77
35248;BME280;21380;52.194;20.520;2023-05-24T07:19:51;100301.56;;;21.02;57.65
35248;BME280;21380;52.194;20.520;2023-05-24T07:22:17;100318.16;;;21.05;57.76
35248;BME280;21380;52.194;20.520;2023-05-24T07:24:43;100333.88;;;21.16;57.75
35248;BME280;21380;52.194;20.520;2023-05-24T07:27:09;100343.50;;;21.16;57.83
35248;BME280;21380;52.194;20.520;2023-05-24T07:29:34;100332.09;;;21.17;57.91
35248;BME280;21380;52.194;20.520;2023-05-24T07:32:01;100333.00;;;21.14;57.90
35248;BME280;21380;52.194;20.520;2023-05-24T07:34:27;100314.69;;;21.03;57.80
35248;BME280;21380;52.194;20.520;2023-05-24T07:36:55;100341.75;;;21.16;57.81
35248;BME280;21380;52.194;20.520;2023-05-24T07:39:24;100341.72;;;21.18;57.88
35248;BME280;21380;52.194;20.520;2023-05-24T07:41:55;100344.31;;;21.19;57.78
35248;BME280;21380;52.194;20.520;2023-05-24T07:44:21;100345.22;;;21.20;58.05
35248;BME280;21380;52.194;20.520;2023-05-24T07:46:48;100346.25;;;20.74;58.38
35248;BME280;21380;52.194;20.520;2023-05-24T07:49:15;100333.09;;;20.97;58.14
35248;BME280;21380;52.194;20.520;2023-05-24T07:51:41;100357.41;;;21.29;57.86
35248;BME280;21380;52.194;20.520;2023-05-24T07:54:08;100357.31;;;21.49;57.41
35248;BME280;21380;52.194;20.520;2023-05-24T07:56:34;100354.63;;;21.64;57.36
35248;BME280;21380;52.194;20.520;2023-05-24T07:59:00;100344.09;;;21.69;56.95
35248;BME280;21380;52.194;20.520;2023-05-24T08:01:33;100357.09;;;21.92;56.33
35248;BME280;21380;52.194;20.520;2023-05-24T08:04:01;100364.03;;;22.01;56.50
35248;BME280;21380;52.194;20.520;2023-05-24T08:06:29;100364.81;;;22.12;56.04
35248;BME280;21380;52.194;20.520;2023-05-24T08:08:57;100356.00;;;22.13;56.00
35248;BME280;21380;52.194;20.520;2023-05-24T08:11:23;100367.31;;;22.23;55.98
35248;BME280;21380;52.194;20.520;2023-05-24T08:13:49;100376.00;;;22.33;55.82
35248;BME280;21380;52.194;20.520;2023-05-24T08:16:15;100378.63;;;22.38;56.10
35248;BME280;21380;52.194;20.520;2023-05-24T08:18:41;100380.31;;;22.43;56.02
35248;BME280;21380;52.194;20.520;2023-05-24T08:21:06;100380.31;;;22.46;55.86
35248;BME280;21380;52.194;20.520;2023-05-24T08:23:33;100370.69;;;22.41;55.57
35248;BME280;21380;52.194;20.520;2023-05-24T08:25:59;100376.78;;;22.47;55.72
35248;BME280;21380;52.194;20.520;2023-05-24T08:28:25;100396.84;;;22.58;55.51
35248;BME280;21380;52.194;20.520;2023-05-24T08:30:52;100389.81;;;22.60;55.85
35248;BME280;21380;52.194;20.520;2023-05-24T08:33:18;100381.94;;;22.57;55.45
35248;BME280;21380;52.194;20.520;2023-05-24T08:35:44;100379.28;;;22.58;55.58
35248;BME280;21380;52.194;20.520;2023-05-24T08:38:10;100389.72;;;22.66;55.52
35248;BME280;21380;52.194;20.520;2023-05-24T08:40:37;100391.47;;;22.67;55.51
35248;BME280;21380;52.194;20.520;2023-05-24T08:43:03;100388.00;;;22.63;55.68
35248;BME280;21380;52.194;20.520;2023-05-24T08:45:39;100402.84;;;22.71;55.50
35248;BME280;21380;52.194;20.520;2023-05-24T08:48:06;100397.59;;;22.69;55.55
35248;BME280;21380;52.194;20.520;2023-05-24T08:50:33;100411.59;;;22.73;55.61
35248;BME280;21380;52.194;20.520;2023-05-24T08:53:00;100395.84;;;22.70;55.27
35248;BME280;21380;52.194;20.520;2023-05-24T08:55:29;100404.53;;;22.75;55.60
35248;BME280;21380;52.194;20.520;2023-05-24T08:57:56;100406.31;;;22.74;55.51
35248;BME280;21380;52.194;20.520;2023-05-24T09:00:23;100415.94;;;22.75;55.25
35248;BME280;21380;52.194;20.520;2023-05-24T09:02:49;100414.19;;;22.74;55.42
35248;BME280;21380;52.194;20.520;2023-05-24T09:05:15;100407.19;;;22.73;55.25
35248;BME280;21380;52.194;20.520;2023-05-24T09:07:44;100412.44;;;22.73;55.19
35248;BME280;21380;52.194;20.520;2023-05-24T09:10:11;100410.72;;;22.74;55.31
35248;BME280;21380;52.194;20.520;2023-05-24T09:12:38;100413.28;;;22.77;55.58
35248;BME280;21380;52.194;20.520;2023-05-24T09:15:05;100426.47;;;22.75;55.66
35248;BME280;21380;52.194;20.520;2023-05-24T09:17:33;100415.16;;;22.69;55.42
35248;BME280;21380;52.194;20.520;2023-05-24T09:19:59;100429.94;;;22.79;55.19
35248;BME280;21380;52.194;20.520;2023-05-24T09:22:27;100436.06;;;22.79;55.38
35248;BME280;21380;52.194;20.520;2023-05-24T09:25:01;100430.84;;;22.75;55.57
35248;BME280;21380;52.194;20.520;2023-05-24T09:27:27;100433.47;;;22.76;55.58
35248;BME280;21380;52.194;20.520;2023-05-24T09:29:56;100433.47;;;22.78;55.45
35248;BME280;21380;52.194;20.520;2023-05-24T09:32:22;100434.41;;;22.71;55.39
35248;BME280;21380;52.194;20.520;2023-05-24T09:34:51;100425.59;;;22.73;55.57
35248;BME280;21380;52.194;20.520;2023-05-24T09:37:22;100423.00;;;22.70;55.83
35248;BME280;21380;52.194;20.520;2023-05-24T09:39:49;100421.28;;;22.66;55.52
35248;BME280;21380;52.194;20.520;2023-05-24T09:42:20;100449.22;;;22.79;55.67
35248;BME280;21380;52.194;20.520;2023-05-24T09:47:31;100451.84;;;22.79;55.45
35248;BME280;21380;52.194;20.520;2023-05-24T09:50:05;100444.88;;;22.75;55.92
35248;BME280;21380;52.194;20.520;2023-05-24T09:52:35;100447.47;;;22.78;55.78
35248;BME280;21380;52.194;20.520;2023-05-24T09:55:10;100454.50;;;22.78;56.00
35248;BME280;21380;52.194;20.520;2023-05-24T09:57:37;100442.31;;;22.69;55.88
35248;BME280;21380;52.194;20.520;2023-05-24T10:00:07;100458.06;;;22.69;56.82
35248;BME280;21380;52.194;20.520;2023-05-24T10:02:41;100459.19;;;22.42;57.52
35248;BME280;21380;52.194;20.520;2023-05-24T10:05:09;100457.41;;;22.45;57.72
35248;BME280;21380;52.194;20.520;2023-05-24T10:07:36;100459.13;;;22.49;57.08
35248;BME280;21380;52.194;20.520;2023-05-24T10:10:04;100458.22;;;22.50;57.31
35248;BME280;21380;52.194;20.520;2023-05-24T10:12:30;100449.50;;;22.50;57.18
35248;BME280;21380;52.194;20.520;2023-05-24T10:14:56;100464.28;;;22.60;56.83
35248;BME280;21380;52.194;20.520;2023-05-24T10:17:23;100450.34;;;22.54;56.86
35248;BME280;21380;52.194;20.520;2023-05-24T10:19:52;100446.81;;;22.56;56.89
35248;BME280;21380;52.194;20.520;2023-05-24T10:22:19;100457.25;;;22.64;56.78
35248;BME280;21380;52.194;20.520;2023-05-24T10:24:50;100445.91;;;22.56;57.00
35248;BME280;21380;52.194;20.520;2023-05-24T10:27:22;100453.78;;;22.57;57.06
35248;BME280;21380;52.194;20.520;2023-05-24T10:32:36;100469.47;;;22.68;57.08
35248;BME280;21380;52.194;20.520;2023-05-24T10:35:05;100460.75;;;22.63;56.85
35248;BME280;21380;52.194;20.520;2023-05-24T10:37:31;100452.94;;;22.57;56.97
35248;BME280;21380;52.194;20.520;2023-05-24T10:39:59;100456.38;;;22.62;56.50
35248;BME280;21380;52.194;20.520;2023-05-24T10:42:25;100468.63;;;22.67;56.93
35248;BME280;21380;52.194;20.520;2023-05-24T10:44:55;100475.63;;;22.67;56.51
35248;BME280;21380;52.194;20.520;2023-05-24T10:47:24;100477.38;;;22.66;56.83
35248;BME280;21380;52.194;20.520;2023-05-24T10:49:55;100472.97;;;22.67;56.52
35248;BME280;21380;52.194;20.520;2023-05-24T10:52:36;100464.28;;;22.62;56.76
35248;BME280;21380;52.194;20.520;2023-05-24T10:55:04;100472.13;;;22.66;56.94
35248;BME280;21380;52.194;20.520;2023-05-24T10:57:33;100478.25;;;22.67;56.63
35248;BME280;21380;52.194;20.520;2023-05-24T11:02:48;100466.91;;;22.62;56.82
35248;BME280;21380;52.194;20.520;2023-05-24T11:05:14;100472.13;;;22.63;56.96
35248;BME280;21380;52.194;20.520;2023-05-24T11:07:42;100459.09;;;22.53;56.71
35248;BME280;21380;52.194;20.520;2023-05-24T11:10:15;100479.16;;;22.64;56.84
35248;BME280;21380;52.194;20.520;2023-05-24T11:12:41;100473.94;;;22.61;56.80
35248;BME280;21380;52.194;20.520;2023-05-24T11:15:10;100482.66;;;22.62;56.69
35248;BME280;21380;52.194;20.520;2023-05-24T11:20:41;100485.28;;;22.63;56.68
35248;BME280;21380;52.194;20.520;2023-05-24T11:23:08;100478.31;;;22.59;57.11
35248;BME280;21380;52.194;20.520;2023-05-24T11:25:35;100473.94;;;22.60;56.94
35248;BME280;21380;52.194;20.520;2023-05-24T11:28:08;100468.72;;;22.55;56.88
35248;BME280;21380;52.194;20.520;2023-05-24T11:30:43;100469.59;;;22.54;57.04
35248;BME280;21380;52.194;20.520;2023-05-24T11:33:19;100479.22;;;22.60;56.72
35248;BME280;21380;52.194;20.520;2023-05-24T11:35:51;100464.34;;;22.54;57.33
35248;BME280;21380;52.194;20.520;2023-05-24T11:38:18;100465.19;;;22.55;57.03
35248;BME280;21380;52.194;20.520;2023-05-24T11:40:49;100463.47;;;22.54;57.12
35248;BME280;21380;52.194;20.520;2023-05-24T11:43:21;100469.56;;;22.60;57.17
35248;BME280;21380;52.194;20.520;2023-05-24T11:45:48;100464.31;;;22.56;56.98
35248;BME280;21380;52.194;20.520;2023-05-24T11:48:15;100460.84;;;22.55;57.04
35248;BME280;21380;52.194;20.520;2023-05-24T11:50:43;100475.69;;;22.59;56.80
35248;BME280;21380;52.194;20.520;2023-05-24T11:53:10;100472.19;;;22.59;57.08
35248;BME280;21380;52.194;20.520;2023-05-24T11:55:37;100457.38;;;22.50;57.17
35248;BME280;21380;52.194;20.520;2023-05-24T11:58:25;100469.56;;;22.56;56.91
35248;BME280;21380;52.194;20.520;2023-05-24T12:00:54;100475.72;;;22.58;57.07
35248;BME280;21380;52.194;20.520;2023-05-24T12:03:20;100472.22;;;22.56;57.43
35248;BME280;21380;52.194;20.520;2023-05-24T12:05:46;100476.59;;;22.57;57.46
35248;BME280;21380;52.194;20.520;2023-05-24T12:08:12;100479.22;;;22.57;57.77
35248;BME280;21380;52.194;20.520;2023-05-24T12:10:41;100466.97;;;22.54;60.32
35248;BME280;21380;52.194;20.520;2023-05-24T12:13:21;100468.56;;;22.71;64.76
35248;BME280;21380;52.194;20.520;2023-05-24T12:15:52;100476.22;;;23.00;62.94
35248;BME280;21380;52.194;20.520;2023-05-24T12:18:20;100466.44;;;23.11;61.24
35248;BME280;21380;52.194;20.520;2023-05-24T12:20:47;100469.84;;;23.24;60.88
35248;BME280;21380;52.194;20.520;2023-05-24T12:23:14;100474.03;;;23.41;60.47
35248;BME280;21380;52.194;20.520;2023-05-24T12:25:40;100461.75;;;23.41;59.93
35248;BME280;21380;52.194;20.520;2023-05-24T12:28:06;100473.84;;;23.58;59.14
35248;BME280;21380;52.194;20.520;2023-05-24T12:30:32;100474.59;;;23.66;59.13
35248;BME280;21380;52.194;20.520;2023-05-24T12:32:57;100465.81;;;23.67;58.98
35248;BME280;21380;52.194;20.520;2023-05-24T12:35:23;100461.41;;;23.69;58.54
35248;BME280;21380;52.194;20.520;2023-05-24T12:37:57;100464.81;;;23.76;58.64
35248;BME280;21380;52.194;20.520;2023-05-24T12:40:24;100479.59;;;23.88;58.34
35248;BME280;21380;52.194;20.520;2023-05-24T12:42:52;100467.31;;;23.87;58.44
35248;BME280;21380;52.194;20.520;2023-05-24T12:45:19;100469.91;;;23.91;58.50
35248;BME280;21380;52.194;20.520;2023-05-24T12:47:51;100467.19;;;23.96;58.12
35248;BME280;21380;52.194;20.520;2023-05-24T12:50:21;100475.06;;;23.99;58.03
35248;BME280;21380;52.194;20.520;2023-05-24T12:52:48;100468.91;;;24.00;58.15
35248;BME280;21380;52.194;20.520;2023-05-24T12:55:18;100474.16;;;24.02;58.15
35248;BME280;21380;52.194;20.520;2023-05-24T12:57:45;100477.66;;;24.02;57.99
35248;BME280;21380;52.194;20.520;2023-05-24T13:00:19;100470.63;;;24.01;57.90
35248;BME280;21380;52.194;20.520;2023-05-24T13:02:45;100475.91;;;24.03;58.02
35248;BME280;21380;52.194;20.520;2023-05-24T13:05:12;100475.25;;;23.85;61.41
35248;BME280;21380;52.194;20.520;2023-05-24T13:07:38;100468.72;;;23.42;64.89